Time;durP1;ratioP1;P1;durP2;ratioP2;P2;SDS_P1;SDS_P2;PMS_P1;PMS_P2;Temp;Humidity;BMP_temperature;BMP_pressure;BME280_temperature;BME280_humidity;BME280_pressure;Samples;Min_cycle;Max_cycle;Signal;HPM_P1;HPM_P2
2022/02/01 00:01:32;;;;;;;;;;;1.50;1.40;;;1.60;100.00;94975.52;652679;212;25263;-77
2022/02/01 00:04:21;;;;;;;;;;;1.40;1.40;;;1.58;100.00;94977.38;653407;212;25681;-77
2022/02/01 00:07:17;;;;;;;;;;;1.40;1.40;;;1.59;100.00;94987.91;653049;212;24915;-76
2022/02/01 00:10:06;;;;;;;;;;;1.40;1.40;;;1.59;100.00;94990.09;653860;216;24900;-76
2022/02/01 00:19:01;;;;;;;;;;;1.10;1.40;;;1.36;100.00;94977.87;654571;216;24826;-76
2022/02/01 00:36:03;;;;;;;0.40;0.30;;;0.60;1.40;;;0.92;100.00;94971.05;646889;212;31574;-74
2022/02/01 00:38:55;;;;;;;0.40;0.30;;;0.50;1.40;;;0.83;100.00;94969.33;647748;215;31893;-75
2022/02/01 00:41:32;;;;;;;0.40;0.30;;;0.50;1.40;;;0.83;100.00;94975.30;619454;222;32233;-74
2022/02/01 00:44:11;;;;;;;0.40;0.30;;;0.50;1.40;;;0.81;100.00;94970.22;646845;212;31486;-76
2022/02/01 00:46:53;;;;;;;0.50;0.40;;;0.50;1.40;;;0.79;100.00;94966.62;647252;216;31496;-75
2022/02/01 00:49:35;;;;;;;;;;;0.50;1.40;;;0.77;100.00;94968.43;654472;212;24900;-76
2022/02/01 00:52:16;;;;;;;;;;;0.50;1.40;;;0.75;100.00;94968.09;654505;212;24850;-76
2022/02/01 00:54:57;;;;;;;;;;;0.40;1.40;;;0.81;100.00;94970.70;655164;216;24855;-75
2022/02/01 00:57:38;;;;;;;;;;;0.40;1.40;;;0.81;100.00;94972.83;653442;216;24818;-74
2022/02/01 01:00:19;;;;;;;;;;;0.40;1.40;;;0.79;100.00;94979.70;655028;216;24732;-75
2022/02/01 01:03:01;;;;;;;;;;;0.40;1.40;;;0.79;100.00;94987.22;652873;212;24835;-75
2022/02/01 01:05:42;;;;;;;;;;;0.40;1.40;;;0.79;100.00;94985.67;652368;212;24820;-75
2022/02/01 01:08:24;;;;;;;;;;;0.40;1.40;;;0.77;100.00;94985.50;653915;216;24934;-74
2022/02/01 01:11:05;;;;;;;;;;;0.40;1.40;;;0.78;100.00;94981.41;653770;212;25503;-74
2022/02/01 01:14:22;;;;;;;;;;;0.40;1.40;;;0.80;100.00;94984.78;654316;216;24721;-74
2022/02/01 01:44:22;;;;;;;;;;;0.60;1.40;;;1.13;100.00;95054.95;654562;216;24834;-75
2022/02/01 01:55:14;;;;;;;;;;;0.70;1.40;;;1.15;100.00;95083.00;653992;212;24862;-77
2022/02/01 01:57:55;;;;;;;;;;;0.70;1.40;;;1.16;100.00;95087.70;654712;212;24823;-77
2022/02/01 02:03:41;;;;;;;;;;;0.80;1.40;;;1.23;100.00;95078.89;650157;215;24854;-76
2022/02/01 02:06:22;;;;;;;;;;;0.80;1.40;;;1.26;100.00;95092.05;648002;216;24846;-76
2022/02/01 02:09:04;;;;;;;;;;;0.80;1.40;;;1.25;100.00;95092.58;655166;212;24855;-77
2022/02/01 02:11:54;;;;;;;;;;;0.80;1.40;;;1.26;100.00;95111.23;653011;216;24762;-76
2022/02/01 02:14:30;;;;;;;;;;;0.90;1.40;;;1.28;100.00;95101.90;654403;216;24829;-75
2022/02/01 02:17:08;;;;;;;;;;;0.90;1.40;;;1.29;100.00;95103.98;648664;215;24747;-75
2022/02/01 02:19:50;;;;;;;;;;;0.90;1.40;;;1.30;100.00;95095.27;653851;216;24760;-75
2022/02/01 02:22:31;;;;;;;;;;;0.90;1.40;;;1.27;100.00;95100.77;653829;216;24714;-75
2022/02/01 02:25:19;;;;;;;;;;;0.90;1.40;;;1.29;100.00;95096.99;654556;216;24819;-74
2022/02/01 02:28:02;;;;;;;;;;;0.90;1.40;;;1.31;100.00;95098.80;653634;212;24718;-76
2022/02/01 02:30:45;;;;;;;;;;;1.00;1.40;;;1.26;100.00;95096.59;653338;216;24832;-75
2022/02/01 02:36:02;;;;;;;0.57;0.50;;;1.00;1.40;;;1.31;100.00;95100.82;646151;212;31540;-75
2022/02/01 02:38:43;;;;;;;;;;;1.00;1.40;;;1.29;100.00;95101.84;653566;216;24840;-72
2022/02/01 02:41:29;;;;;;;;;;;1.00;1.40;;;1.30;100.00;95103.83;653326;216;24840;-72
2022/02/01 02:46:49;;;;;;;;;;;0.90;1.40;;;1.24;100.00;95109.82;651656;216;25644;-72
2022/02/01 02:49:30;;;;;;;;;;;0.90;1.40;;;1.27;100.00;95114.27;637626;217;24928;-71
2022/02/01 02:52:15;;;;;;;;;;;1.00;1.40;;;1.27;100.00;95122.07;652987;216;24842;-72
2022/02/01 02:54:56;;;;;;;;;;;1.00;1.40;;;1.30;100.00;95145.27;653958;212;24822;-73
2022/02/01 02:57:44;;;;;;;;;;;1.00;1.40;;;1.32;100.00;95141.91;646814;220;24825;-75
2022/02/01 03:00:25;;;;;;;;;;;1.00;1.40;;;1.32;100.00;95156.05;653341;216;24752;-73
2022/02/01 03:03:12;;;;;;;;;;;1.00;1.40;;;1.31;100.00;95164.21;649123;216;24190;-72
2022/02/01 03:05:55;;;;;;;;;;;1.00;1.40;;;1.23;100.00;95174.58;651904;216;24839;-76
2022/02/01 03:08:37;;;;;;;;;;;0.90;1.40;;;1.23;100.00;95176.39;654162;212;24820;-74
2022/02/01 03:11:18;;;;;;;;;;;0.90;1.40;;;1.23;100.00;95186.22;653754;216;25037;-75
2022/02/01 03:14:18;;;;;;;;;;;0.90;1.40;;;1.18;100.00;95207.52;653038;213;25399;-73
2022/02/01 03:17:05;;;;;;;;;;;0.80;1.40;;;1.20;100.00;95221.11;606615;233;24940;-74
2022/02/01 03:22:26;;;;;;;;;;;0.80;1.40;;;1.12;100.00;95230.05;653593;212;25225;-72
2022/02/01 03:25:10;;;;;;;;;;;0.80;1.40;;;1.06;100.00;95232.24;653404;212;24856;-72
2022/02/01 03:27:48;;;;;;;;;;;0.80;1.40;;;1.04;100.00;95231.59;652201;212;24746;-74
2022/02/01 03:30:30;;;;;;;;;;;0.80;1.40;;;1.03;100.00;95223.45;654523;216;24834;-71
2022/02/01 03:35:54;;;;;;;1.12;1.02;;;0.80;1.40;;;1.01;100.00;95237.96;647302;216;31502;-74
2022/02/01 03:38:35;;;;;;;;;;;0.70;1.40;;;1.03;100.00;95237.66;653013;216;24747;-72
2022/02/01 03:41:17;;;;;;;;;;;0.70;1.40;;;1.04;100.00;95231.80;652889;216;24822;-74
2022/02/01 03:44:00;;;;;;;;;;;0.70;1.40;;;1.05;100.00;95238.27;653205;216;24837;-72
2022/02/01 03:46:43;;;;;;;;;;;0.70;1.40;;;1.03;100.00;95239.95;652924;216;24900;-72
2022/02/01 03:49:20;;;;;;;;;;;0.70;1.40;;;1.05;100.00;95239.82;652073;212;24850;-72
2022/02/01 03:52:05;;;;;;;;;;;0.70;1.40;;;1.05;100.00;95256.37;652672;212;24831;-73
2022/02/01 03:54:52;;;;;;;;;;;0.70;1.40;;;1.00;100.00;95270.61;653563;216;24932;-75
2022/02/01 03:57:36;;;;;;;;;;;0.70;1.40;;;0.96;100.00;95277.88;652761;212;24823;-72
2022/02/01 04:00:17;;;;;;;;;;;0.60;1.40;;;0.98;100.00;95285.22;653396;216;24827;-72
2022/02/01 04:03:04;;;;;;;;;;;0.60;1.40;;;0.95;100.00;95281.55;653992;216;24675;-72
2022/02/01 04:05:43;;;;;;;;;;;0.60;1.40;;;0.93;100.00;95289.38;652956;216;24812;-73
2022/02/01 04:08:26;;;;;;;;;;;0.60;1.40;;;0.90;100.00;95288.56;654724;216;24827;-75
2022/02/01 04:11:13;;;;;;;;;;;0.60;1.40;;;0.90;100.00;95302.64;653085;216;24843;-73
2022/02/01 04:13:56;;;;;;;;;;;0.50;1.40;;;0.89;100.00;95300.44;653851;212;24928;-73
2022/02/01 04:16:38;;;;;;;;;;;0.50;1.40;;;0.85;100.00;95303.76;654503;216;24739;-74
2022/02/01 04:19:19;;;;;;;;;;;0.60;1.40;;;0.82;100.00;95314.13;652868;212;24747;-75
2022/02/01 04:22:01;;;;;;;;;;;0.60;1.40;;;0.88;100.00;95313.71;654429;216;25262;-75
2022/02/01 04:24:48;;;;;;;;;;;0.70;1.40;;;0.87;100.00;95327.47;653475;216;24734;-73
2022/02/01 04:27:31;;;;;;;;;;;0.70;1.40;;;0.85;100.00;95336.84;652509;212;24828;-75
2022/02/01 04:30:13;;;;;;;;;;;0.60;1.40;;;0.83;100.00;95342.52;653747;212;24941;-72
2022/02/01 04:32:55;;;;;;;;;;;0.50;1.40;;;0.79;100.00;95348.45;654180;214;24821;-73
2022/02/01 04:36:36;;;;;;;3.40;1.85;;;0.50;1.40;;;0.76;100.00;95343.44;647312;212;31475;-73
2022/02/01 04:39:18;;;;;;;1.40;1.30;;;0.50;1.40;;;0.77;100.00;95346.01;646275;216;31755;-75
2022/02/01 04:41:59;;;;;;;;;;;0.40;1.40;;;0.79;100.00;95339.95;652628;216;24958;-72
2022/02/01 04:44:41;;;;;;;;;;;0.40;1.40;;;0.83;100.00;95346.36;652005;212;24864;-74
2022/02/01 04:47:22;;;;;;;;;;;0.50;1.40;;;0.80;100.00;95351.13;652752;216;24830;-73
2022/02/01 04:50:11;;;;;;;;;;;0.50;1.40;;;0.86;100.00;95351.58;652333;212;24781;-73
2022/02/01 04:52:52;;;;;;;;;;;0.50;1.40;;;0.86;100.00;95348.33;621961;226;24894;-73
2022/02/01 04:55:54;;;;;;;;;;;0.50;1.40;;;0.87;100.00;95356.72;649225;219;24895;-73
2022/02/01 04:58:32;;;;;;;;;;;0.50;1.40;;;0.87;100.00;95358.48;653057;212;24830;-73
2022/02/01 05:01:13;;;;;;;;;;;0.60;1.40;;;0.91;100.00;95369.74;635447;221;24772;-73
2022/02/01 05:03:54;;;;;;;;;;;0.60;1.40;;;0.94;100.00;95370.66;648642;217;24813;-73
2022/02/01 05:06:39;;;;;;;;;;;0.60;1.40;;;0.95;100.00;95377.08;649378;212;24856;-74
2022/02/01 05:09:27;;;;;;;;;;;0.60;1.40;;;0.99;100.00;95378.47;649909;217;25114;-77
2022/02/01 05:12:15;;;;;;;;;;;0.60;1.40;;;0.97;100.00;95386.83;653024;212;24914;-74
2022/02/01 05:15:05;;;;;;;;;;;0.60;1.40;;;1.01;100.00;95399.95;653205;216;24853;-74
2022/02/01 05:17:40;;;;;;;;;;;0.60;1.40;;;0.96;100.00;95406.61;653808;212;24727;-72
2022/02/01 05:20:39;;;;;;;;;;;0.50;1.40;;;0.98;100.00;95409.52;652553;216;24847;-73
2022/02/01 05:23:05;;;;;;;;;;;0.60;1.40;;;0.91;100.00;95415.80;653588;216;25262;-74
2022/02/01 05:25:46;;;;;;;;;;;0.60;1.40;;;0.86;100.00;95411.77;652632;216;24789;-74
2022/02/01 05:28:28;;;;;;;;;;;0.60;1.40;;;0.88;100.00;95403.80;652474;216;24963;-73
2022/02/01 05:31:09;;;;;;;;;;;0.60;1.40;;;0.93;100.00;95407.17;653113;212;24735;-74
2022/02/01 05:35:57;;;;;;;;;;;0.60;1.40;;;0.86;100.00;95422.23;652974;212;25424;-73
2022/02/01 05:38:38;;;;;;;;;;;0.60;1.40;;;0.84;100.00;95428.83;652549;216;24844;-74
2022/02/01 05:41:24;;;;;;;;;;;0.70;1.40;;;0.87;100.00;95440.08;653224;216;25464;-76
2022/02/01 05:44:06;;;;;;;;;;;0.60;1.40;;;0.89;100.00;95440.58;651449;216;24825;-73
2022/02/01 05:46:53;;;;;;;;;;;0.60;1.40;;;0.94;100.00;95445.39;654630;216;24770;-76
2022/02/01 05:49:35;;;;;;;;;;;0.60;1.40;;;0.96;100.00;95457.58;653592;216;25634;-77
2022/02/01 05:52:22;;;;;;;;;;;0.70;1.40;;;1.01;100.00;95455.36;653553;216;24856;-74
2022/02/01 05:55:12;;;;;;;;;;;0.70;1.40;;;0.97;100.00;95459.05;654852;212;24841;-78
2022/02/01 05:57:58;;;;;;;;;;;0.60;1.40;;;0.94;100.00;95469.34;653337;216;25085;-74
2022/02/01 06:00:46;;;;;;;;;;;0.70;1.40;;;0.95;100.00;95480.35;653501;216;24725;-78
2022/02/01 06:03:33;;;;;;;;;;;0.60;1.40;;;0.93;100.00;95479.75;654280;216;25376;-74
2022/02/01 06:06:16;;;;;;;;;;;0.70;1.40;;;0.97;100.00;95474.73;647469;212;24875;-75
2022/02/01 06:08:58;;;;;;;;;;;0.60;1.40;;;0.98;100.00;95478.31;653443;216;24721;-75
2022/02/01 06:11:42;;;;;;;;;;;0.70;1.40;;;0.92;100.00;95478.47;654401;212;24821;-77
2022/02/01 06:14:24;;;;;;;;;;;0.60;1.40;;;0.94;100.00;95485.73;649644;216;25318;-76
2022/02/01 06:17:05;;;;;;;;;;;0.60;1.40;;;0.89;100.00;95490.65;649238;214;24822;-76
2022/02/01 06:19:47;;;;;;;;;;;0.60;1.40;;;0.88;100.00;95484.92;655421;216;24825;-75
2022/02/01 06:22:31;;;;;;;;;;;0.60;1.40;;;0.85;100.00;95476.38;649875;216;24818;-76
2022/02/01 06:25:12;;;;;;;;;;;0.50;1.40;;;0.86;100.00;95483.13;653367;212;24867;-78
2022/02/01 06:27:59;;;;;;;;;;;0.50;1.40;;;0.88;100.00;95476.91;653223;212;24840;-75
2022/02/01 06:30:47;;;;;;;;;;;0.50;1.40;;;0.83;100.00;95481.37;654137;212;24838;-76
2022/02/01 06:35:50;;;;;;;;;;;0.40;1.40;;;0.88;100.00;95473.81;654409;216;24800;-77
2022/02/01 06:38:38;;;;;;;;;;;0.50;1.40;;;0.91;100.00;95477.50;652787;212;25673;-76
2022/02/01 06:41:29;;;;;;;;;;;0.50;1.40;;;0.91;100.00;95487.20;649831;216;24866;-77
2022/02/01 06:44:10;;;;;;;;;;;0.60;1.40;;;0.97;100.00;95477.94;623300;224;24890;-77
2022/02/01 06:46:52;;;;;;;;;;;0.60;1.40;;;0.94;100.00;95478.38;654033;212;24852;-77
2022/02/01 06:49:34;;;;;;;;;;;0.60;1.40;;;0.98;100.00;95489.48;653696;216;25421;-77
2022/02/01 06:52:21;;;;;;;;;;;0.60;1.40;;;0.96;100.00;95486.72;654190;216;24840;-76
2022/02/01 06:55:03;;;;;;;;;;;0.60;1.40;;;0.95;100.00;95489.02;652023;216;25007;-73
2022/02/01 06:57:50;;;;;;;;;;;0.70;1.40;;;0.99;100.00;95496.33;654138;216;24838;-77
2022/02/01 07:00:37;;;;;;;;;;;0.70;1.40;;;1.02;100.00;95507.73;652799;213;24825;-74
2022/02/01 07:03:24;;;;;;;;;;;0.70;1.40;;;1.01;100.00;95512.63;654139;216;24910;-75
2022/02/01 07:06:12;;;;;;;;;;;0.70;1.40;;;0.97;100.00;95529.70;650386;216;24824;-77
2022/02/01 07:08:55;;;;;;;;;;;0.70;1.40;;;0.95;100.00;95527.97;653100;212;24831;-76
2022/02/01 07:11:42;;;;;;;;;;;0.70;1.40;;;0.93;100.00;95530.46;651275;216;25012;-75
2022/02/01 07:14:26;;;;;;;;;;;0.70;1.40;;;0.89;100.00;95517.28;654860;216;24813;-77
2022/02/01 07:17:07;;;;;;;;;;;0.70;1.40;;;0.89;100.00;95517.81;653001;216;24885;-77
2022/02/01 07:19:57;;;;;;;;;;;0.70;1.40;;;0.86;100.00;95522.50;653137;216;25191;-74
2022/02/01 07:22:47;;;;;;;;;;;0.70;1.40;;;0.81;100.00;95533.38;652772;216;24975;-76
2022/02/01 07:25:31;;;;;;;;;;;0.60;1.40;;;0.81;100.00;95535.13;648637;216;24841;-75
2022/02/01 07:28:10;;;;;;;;;;;0.60;1.40;;;0.74;100.00;95546.78;652817;216;24820;-77
2022/02/01 07:30:51;;;;;;;;;;;0.60;1.40;;;0.70;100.00;95561.27;654966;216;24932;-77
2022/02/01 07:35:53;;;;;;;1.05;0.50;;;0.60;1.40;;;0.68;100.00;95572.92;618722;222;31995;-77
2022/02/01 07:38:37;;;;;;;0.80;0.60;;;0.60;1.40;;;0.72;100.00;95579.66;645116;216;34740;-77
2022/02/01 07:41:25;;;;;;;0.80;0.80;;;0.60;1.40;;;0.73;100.00;95586.78;647800;212;31513;-77
2022/02/01 07:44:06;;;;;;;2.70;0.50;;;0.60;1.40;;;0.70;100.00;95597.27;620944;226;32098;-76
2022/02/01 07:46:49;;;;;;;4.30;1.40;;;0.60;1.40;;;0.71;100.00;95601.20;646092;212;31766;-77
2022/02/01 07:49:31;;;;;;;3.42;1.23;;;0.60;1.40;;;0.72;100.00;95604.80;648114;216;31659;-76
2022/02/01 07:52:13;;;;;;;2.10;1.90;;;0.50;1.40;;;0.68;100.00;95602.91;647205;216;31536;-77
2022/02/01 07:54:58;;;;;;;1.90;1.20;;;0.40;1.40;;;0.64;100.00;95613.38;646957;212;31745;-77
2022/02/01 07:57:43;;;;;;;0.75;0.75;;;0.30;1.40;;;0.65;100.00;95611.33;647169;216;32756;-77
2022/02/01 08:00:26;;;;;;;0.40;0.40;;;0.40;1.40;;;0.68;100.00;95613.52;647329;216;31518;-77
2022/02/01 08:03:13;;;;;;;1.10;0.60;;;0.40;1.40;;;0.68;100.00;95609.13;649982;215;42156;-76
2022/02/01 08:05:59;;;;;;;3.50;0.80;;;0.40;1.40;;;0.66;100.00;95612.31;645576;212;31624;-75
2022/02/01 08:08:47;;;;;;;1.50;1.30;;;0.40;1.40;;;0.64;100.00;95617.01;646438;212;31532;-77
2022/02/01 08:11:32;;;;;;;0.75;0.65;;;0.40;1.40;;;0.66;100.00;95608.63;647250;216;31965;-77
2022/02/01 08:17:08;;;;;;;2.10;0.80;;;0.40;1.40;;;0.60;100.00;95617.69;647310;216;31573;-77
2022/02/01 08:19:57;;;;;;;1.10;0.70;;;0.40;1.40;;;0.69;100.00;95624.47;646981;216;31554;-77
2022/02/01 08:25:24;;;;;;;1.60;0.70;;;0.40;1.40;;;0.66;100.00;95635.40;619763;225;31996;-77
2022/02/01 08:28:04;;;;;;;0.90;0.90;;;0.40;1.40;;;0.61;100.00;95641.29;646727;212;31530;-75
2022/02/01 08:30:46;;;;;;;1.60;0.40;;;0.40;1.40;;;0.65;100.00;95642.27;646565;216;42154;-76
2022/02/01 08:35:51;;;;;;;1.12;1.12;;;0.50;1.40;;;0.69;100.00;95646.20;646521;216;31582;-75
2022/02/01 08:38:37;;;;;;;1.00;0.70;;;0.50;1.40;;;0.67;100.00;95649.73;647371;216;31511;-76
2022/02/01 08:41:19;;;;;;;0.40;0.30;;;0.50;1.40;;;0.67;100.00;95659.05;647161;215;31498;-76
2022/02/01 08:46:33;;;;;;;0.90;0.50;;;0.40;1.40;;;0.69;100.00;95686.35;643671;215;32044;-77
2022/02/01 08:49:15;;;;;;;0.70;0.65;;;0.40;1.40;;;0.64;100.00;95662.25;646367;212;32342;-77
2022/02/01 08:52:07;;;;;;;1.80;0.80;;;0.30;1.40;;;0.68;100.00;95679.30;645691;216;42486;-77
2022/02/01 08:54:54;;;;;;;2.78;1.10;;;0.30;1.40;;;0.65;100.00;95684.68;648371;216;32422;-77
2022/02/01 08:57:34;;;;;;;0.40;0.30;;;0.40;1.40;;;0.75;100.00;95690.04;619630;226;31849;-77
2022/02/01 09:00:25;;;;;;;4.10;0.50;;;0.60;1.40;;;0.84;100.00;95691.80;647627;212;31492;-77
2022/02/01 09:03:08;;;;;;;0.40;0.40;;;0.60;1.40;;;0.92;100.00;95677.12;647743;216;31593;-77
2022/02/01 09:05:52;;;;;;;0.82;0.50;;;0.60;1.40;;;0.94;100.00;95680.61;639122;217;32290;-76
2022/02/01 09:08:33;;;;;;;4.10;0.75;;;0.70;1.40;;;0.99;100.00;95688.48;619997;226;33159;-76
2022/02/01 09:11:14;;;;;;;3.90;0.40;;;0.70;1.40;;;1.11;100.00;95687.69;621334;225;42705;-77
2022/02/01 09:13:56;;;;;;;0.60;0.60;;;0.70;1.40;;;1.11;100.00;95687.22;646913;216;31544;-77
2022/02/01 09:16:40;;;;;;;4.30;0.90;;;0.70;1.40;;;1.07;100.00;95700.33;646875;216;42178;-75
2022/02/01 09:19:28;;;;;;;0.60;0.40;;;0.70;1.40;;;1.09;100.00;95705.33;646636;216;31569;-77
2022/02/01 09:22:13;;;;;;;2.10;1.30;;;0.70;1.40;;;1.19;100.00;95696.94;646312;212;31549;-77
2022/02/01 09:24:54;;;;;;;0.90;0.40;;;0.70;1.40;;;1.24;100.00;95690.95;620753;226;42745;-77
2022/02/01 09:27:41;;;;;;;0.60;0.60;;;0.70;1.40;;;1.04;100.00;95677.53;648099;216;31515;-77
2022/02/01 09:30:23;;;;;;;2.60;1.10;;;0.70;1.40;;;1.02;100.00;95680.17;619980;226;42459;-77
2022/02/01 09:35:51;;;;;;;0.40;0.30;;;0.80;1.40;;;0.94;100.00;95672.75;647870;216;42040;-76
2022/02/01 09:38:39;;;;;;;1.70;0.60;;;0.70;1.40;;;1.04;100.00;95685.44;647084;212;32225;-76
2022/02/01 09:41:23;;;;;;;0.50;0.40;;;0.80;1.40;;;1.21;100.00;95690.85;647488;216;42177;-77
2022/02/01 09:44:08;;;;;;;0.70;0.50;;;0.90;1.40;;;1.34;100.00;95707.08;647980;216;31501;-76
2022/02/01 09:46:50;;;;;;;0.50;0.50;;;0.90;1.40;;;1.14;100.00;95706.09;632082;222;42304;-77
2022/02/01 09:49:31;;;;;;;2.60;1.00;;;0.90;1.40;;;1.11;100.00;95706.87;646642;216;31782;-77
2022/02/01 09:52:21;;;;;;;0.80;0.60;;;0.90;1.40;;;1.19;100.00;95710.03;646403;212;42100;-76
2022/02/01 09:55:07;;;;;;;1.00;0.77;;;0.90;1.40;;;1.19;100.00;95703.73;647257;216;31527;-74
2022/02/01 09:57:53;;;;;;;0.40;0.30;;;1.00;1.40;;;1.17;100.00;95702.95;647287;216;31546;-76
2022/02/01 10:00:35;;;;;;;0.52;0.40;;;1.00;1.40;;;1.20;100.00;95720.58;647832;216;31617;-77
2022/02/01 10:03:23;;;;;;;1.85;0.77;;;0.90;1.40;;;1.30;100.00;95725.37;642508;215;31560;-76
2022/02/01 10:06:14;;;;;;;2.80;0.75;;;1.00;1.40;;;1.20;100.00;95727.57;610825;229;32002;-77
2022/02/01 10:08:54;;;;;;;3.10;0.47;;;0.90;1.40;;;1.16;100.00;95724.39;646965;216;32066;-76
2022/02/01 10:11:41;;;;;;;0.70;0.65;;;0.90;1.40;;;1.25;100.00;95726.69;647836;212;31564;-77
2022/02/01 10:14:31;;;;;;;0.40;0.33;;;1.00;1.40;;;1.19;100.00;95722.05;646290;216;42157;-76
2022/02/01 10:17:10;;;;;;;1.40;0.50;;;1.00;1.40;;;1.24;100.00;95722.83;646735;216;42199;-74
2022/02/01 10:19:51;;;;;;;3.70;0.70;;;1.00;1.40;;;1.24;100.00;95718.29;647344;212;32016;-74
2022/02/01 10:22:39;;;;;;;1.10;1.00;;;1.10;1.40;;;1.37;100.00;95712.84;646332;216;31552;-75
2022/02/01 10:25:23;;;;;;;0.40;0.40;;;1.10;1.40;;;1.37;100.00;95710.44;647534;216;42696;-77
2022/02/01 10:28:04;;;;;;;1.90;0.90;;;1.20;1.40;;;1.54;100.00;95704.92;648802;212;31493;-76
2022/02/01 10:30:48;;;;;;;0.40;0.40;;;1.20;1.40;;;1.44;100.00;95718.47;648009;216;31557;-78
2022/02/01 10:35:56;;;;;;;0.90;0.90;;;1.10;1.40;;;1.51;100.00;95716.31;647395;216;31545;-76
2022/02/01 10:38:38;;;;;;;2.58;1.83;;;1.20;1.40;;;1.44;100.00;95724.23;646494;216;31551;-76
2022/02/01 10:41:20;;;;;;;2.22;0.98;;;1.10;1.40;;;1.48;100.00;95703.74;647050;216;31484;-76
2022/02/01 10:44:04;;;;;;;1.10;0.77;;;1.20;1.40;;;1.47;100.00;95710.29;646966;216;31573;-76
2022/02/01 10:46:51;;;;;;;9.85;0.90;;;1.20;1.40;;;1.42;100.00;95703.95;647416;216;43874;-76
2022/02/01 10:49:38;;;;;;;2.60;1.00;;;1.20;1.40;;;1.40;100.00;95695.84;647547;216;42971;-75
2022/02/01 10:52:26;;;;;;;1.70;0.80;;;1.20;1.40;;;1.43;100.00;95687.56;645713;216;31561;-76
2022/02/01 10:55:08;;;;;;;0.70;0.47;;;1.20;1.40;;;1.40;100.00;95689.92;643205;217;31764;-75
2022/02/01 10:57:50;;;;;;;1.10;0.80;;;1.20;1.40;;;1.39;100.00;95693.70;648281;216;31502;-76
2022/02/01 11:00:32;;;;;;;2.90;0.60;;;1.20;1.40;;;1.42;100.00;95691.92;619237;222;31917;-77
2022/02/01 11:03:17;;;;;;;0.43;0.43;;;1.20;1.40;;;1.41;100.00;95686.58;646531;213;42155;-76
2022/02/01 11:05:58;;;;;;;3.10;0.40;;;1.20;1.40;;;1.35;100.00;95681.03;643353;216;42621;-76
2022/02/01 11:08:40;;;;;;;6.32;0.65;;;1.20;1.40;;;1.39;100.00;95669.34;618844;226;43328;-77
2022/02/01 11:11:24;;;;;;;1.20;0.60;;;1.20;1.40;;;1.38;100.00;95669.85;647344;216;31496;-77
2022/02/01 11:14:06;;;;;;;0.50;0.50;;;1.20;1.40;;;1.41;100.00;95687.84;647039;212;31891;-76
2022/02/01 11:16:47;;;;;;;8.20;1.00;;;1.20;1.40;;;1.41;100.00;95677.66;648989;216;31587;-78
2022/02/01 11:19:29;;;;;;;1.20;1.10;;;1.20;1.40;;;1.48;100.00;95684.03;647857;212;31580;-74
2022/02/01 11:22:19;;;;;;;0.60;0.60;;;1.20;1.40;;;1.53;100.00;95682.69;647479;216;42699;-77
2022/02/01 11:25:00;;;;;;;0.57;0.57;;;1.30;1.40;;;1.55;100.00;95679.67;648317;212;31486;-77
2022/02/01 11:27:59;;;;;;;0.55;0.52;;;1.30;1.40;;;1.54;100.00;95666.58;648011;216;32623;-78
2022/02/01 11:30:37;;;;;;;2.20;0.60;;;1.40;1.40;;;1.66;100.00;95667.99;647627;212;31514;-77
2022/02/01 11:35:50;;;;;;;;;;;1.60;1.40;;;1.74;100.00;95654.05;655331;213;25108;-78
2022/02/01 11:38:37;;;;;;;;;;;1.60;1.40;;;1.77;100.00;95646.23;652908;216;24969;-76
2022/02/01 11:41:30;;;;;;;;;;;1.60;1.40;;;1.82;100.00;95640.16;652924;216;24791;-78
2022/02/01 11:44:11;;;;;;;;;;;1.70;1.40;;;1.76;100.00;95638.89;654150;216;24817;-77
2022/02/01 11:47:01;;;;;;;;;;;1.60;1.40;;;1.87;100.00;95635.81;652876;216;24830;-77
2022/02/01 11:50:10;;;;;;;;;;;1.70;1.40;;;1.93;100.00;95638.42;655106;216;24742;-76
2022/02/01 11:52:53;;;;;;;;;;;1.70;1.40;;;1.78;100.00;95634.59;650216;215;24829;-77
2022/02/01 11:55:34;;;;;;;;;;;1.70;1.40;;;1.90;100.00;95623.14;654365;216;25246;-76
2022/02/01 11:58:27;;;;;;;;;;;1.80;1.40;;;1.90;100.00;95620.20;650170;216;24819;-77
2022/02/01 12:01:23;;;;;;;;;;;1.90;1.40;;;2.02;100.00;95599.25;650242;214;24804;-79
2022/02/01 12:04:09;;;;;;;;;;;1.90;1.40;;;2.00;100.00;95591.26;654540;212;24915;-77
2022/02/01 12:06:58;;;;;;;;;;;1.90;1.40;;;2.11;100.00;95593.63;636302;219;25757;-78
2022/02/01 12:09:33;;;;;;;;;;;1.90;1.40;;;2.06;100.00;95582.21;647921;214;24852;-76
2022/02/01 12:12:17;;;;;;;;;;;1.90;1.40;;;1.94;100.00;95574.34;623397;224;25013;-77
2022/02/01 12:14:59;;;;;;;;;;;1.70;1.40;;;2.02;100.00;95544.59;653678;212;24809;-76
2022/02/01 12:17:41;;;;;;;;;;;1.90;1.40;;;2.02;100.00;95536.36;655248;216;25353;-77
2022/02/01 12:20:26;;;;;;;;;;;2.10;1.40;;;2.04;100.00;95537.95;655115;216;24819;-76
2022/02/01 12:23:22;;;;;;;;;;;1.90;1.40;;;2.05;100.00;95541.62;655106;212;24824;-76
2022/02/01 12:26:03;;;;;;;;;;;1.90;1.40;;;2.04;100.00;95544.84;654856;212;25412;-76
2022/02/01 12:28:47;;;;;;;;;;;1.80;1.40;;;1.90;100.00;95531.94;655126;216;24826;-77
2022/02/01 12:31:29;;;;;;;;;;;1.70;1.40;;;1.75;100.00;95520.34;654567;212;24939;-76
2022/02/01 12:35:51;;;;;;;1.30;0.70;;;1.60;1.40;;;1.66;100.00;95510.84;647264;216;32157;-76
2022/02/01 12:38:33;;;;;;;1.42;0.95;;;1.50;1.40;;;1.59;100.00;95500.27;646617;212;31481;-76
2022/02/01 12:41:17;;;;;;;3.17;0.90;;;1.40;1.40;;;1.63;100.00;95499.14;647245;216;31559;-76
2022/02/01 12:46:56;;;;;;;0.80;0.62;;;1.40;1.40;;;1.61;100.00;95496.98;647379;212;31526;-76
2022/02/01 12:49:38;;;;;;;1.50;0.50;;;1.40;1.40;;;1.62;100.00;95507.36;646919;212;31498;-77
2022/02/01 12:52:25;;;;;;;0.90;0.60;;;1.40;1.40;;;1.60;100.00;95504.98;641744;217;31505;-76
2022/02/01 12:55:07;;;;;;;0.40;0.30;;;1.40;1.40;;;1.57;100.00;95499.81;619870;222;31877;-77
2022/02/01 12:57:49;;;;;;;0.45;0.43;;;1.40;1.40;;;1.56;100.00;95522.19;620163;226;43216;-76
2022/02/01 13:00:31;;;;;;;1.40;0.50;;;1.40;1.40;;;1.50;100.00;95485.41;647148;212;31564;-78
2022/02/01 13:03:12;;;;;;;0.50;0.50;;;1.40;1.40;;;1.60;100.00;95482.97;647493;212;42147;-76
2022/02/01 13:05:56;;;;;;;0.52;0.40;;;1.40;1.40;;;1.64;100.00;95472.28;643007;212;31679;-77
2022/02/01 13:12:54;;;;;;;1.40;1.23;;;1.40;1.40;;;1.58;100.00;95489.94;648351;212;31536;-77
2022/02/01 13:14:29;;;;;;;2.30;1.20;;;1.40;1.40;;;1.60;100.00;95478.85;648013;216;31460;-76
2022/02/01 13:16:59;;;;;;;1.00;0.50;;;1.40;1.40;;;1.65;100.00;95468.61;646508;216;32530;-75
2022/02/01 13:22:21;;;;;;;1.10;0.62;;;1.40;1.40;;;1.50;100.00;95471.04;647365;212;42672;-77
2022/02/01 13:25:06;;;;;;;1.90;1.20;;;1.40;1.40;;;1.51;100.00;95476.28;647149;212;42146;-76
2022/02/01 13:30:26;;;;;;;0.40;0.40;;;1.40;1.40;;;1.55;100.00;95475.00;647252;216;31515;-76
2022/02/01 13:35:51;;;;;;;;;;;1.40;1.40;;;1.56;100.00;95454.59;652976;216;25679;-77
2022/02/01 13:38:32;;;;;;;;;;;1.30;1.40;;;1.55;100.00;95468.64;653828;216;24800;-76
2022/02/01 13:41:13;;;;;;;;;;;1.30;1.40;;;1.45;100.00;95464.53;655353;212;24734;-77
2022/02/01 13:43:56;;;;;;;;;;;1.20;1.40;;;1.42;100.00;95442.91;653685;212;24853;-77
2022/02/01 13:46:44;;;;;;;;;;;1.20;1.40;;;1.39;100.00;95439.08;649367;216;24902;-78
2022/02/01 13:49:22;;;;;;;;;;;1.20;1.40;;;1.40;100.00;95420.19;653368;212;24823;-77
2022/02/01 13:52:03;;;;;;;;;;;1.20;1.40;;;1.40;100.00;95420.02;622372;225;25706;-76
2022/02/01 13:54:45;;;;;;;;;;;1.20;1.40;;;1.39;100.00;95411.31;655018;212;25033;-77
2022/02/01 13:57:29;;;;;;;;;;;1.20;1.40;;;1.37;100.00;95426.08;654552;216;24728;-77
2022/02/01 14:00:12;;;;;;;;;;;1.30;1.40;;;1.45;100.00;95406.78;653989;212;24903;-78
2022/02/01 14:02:57;;;;;;;;;;;1.30;1.40;;;1.44;100.00;95434.22;653682;216;24895;-76
2022/02/01 14:05:41;;;;;;;;;;;1.30;1.40;;;1.42;100.00;95415.45;652202;216;24824;-76
2022/02/01 14:08:36;;;;;;;;;;;1.30;1.40;;;1.43;100.00;95426.42;654111;216;24863;-77
2022/02/01 14:14:12;;;;;;;;;;;1.20;1.40;;;1.40;100.00;95427.70;654062;212;24854;-78
2022/02/01 14:22:49;;;;;;;;;;;1.20;1.40;;;1.40;100.00;95373.77;653235;216;24826;-77